createdAt,value
2022-12-04T00:02:02.378Z,22.40
2022-12-04T00:04:35.503Z,20.88
2022-12-04T00:07:08.250Z,21.20
2022-12-04T00:09:40.693Z,20.20
2022-12-04T00:12:13.233Z,20.27
2022-12-04T00:15:23.555Z,20.05
2022-12-04T00:17:19.964Z,21.02
2022-12-04T00:19:52.804Z,20.48
2022-12-04T00:22:25.671Z,19.00
2022-12-04T00:24:58.003Z,18.52
2022-12-04T00:27:30.616Z,22.07
2022-12-04T00:30:03.058Z,19.45
2022-12-04T00:32:36.660Z,20.25
2022-12-04T00:35:10.088Z,22.80
2022-12-04T00:37:42.468Z,24.30
2022-12-04T00:40:15.420Z,21.27
2022-12-04T00:42:47.927Z,27.25
2022-12-04T00:45:20.395Z,21.30
2022-12-04T00:47:53.078Z,23.02
2022-12-04T00:50:25.520Z,22.58
2022-12-04T00:52:58.684Z,23.38
2022-12-04T00:55:31.053Z,15.95
2022-12-04T00:58:03.490Z,26.05
2022-12-04T01:00:38.018Z,23.10
2022-12-04T01:03:11.169Z,21.07
2022-12-04T01:05:46.015Z,25.77
2022-12-04T01:08:18.641Z,24.52
2022-12-04T01:11:05.978Z,25.52
2022-12-04T01:13:38.551Z,24.98
2022-12-04T01:16:12.947Z,19.67
2022-12-04T01:18:45.625Z,22.52
2022-12-04T01:21:18.818Z,21.20
2022-12-04T01:23:51.412Z,21.12
2022-12-04T01:26:23.736Z,24.60
2022-12-04T01:28:56.290Z,23.10
2022-12-04T01:31:28.786Z,23.12
2022-12-04T01:34:01.368Z,23.22
2022-12-04T01:36:33.910Z,23.77
2022-12-04T01:39:06.314Z,24.23
2022-12-04T01:41:38.736Z,25.00
2022-12-04T01:44:23.251Z,27.55
2022-12-04T01:49:44.305Z,26.65
2022-12-04T01:52:21.553Z,23.67
2022-12-04T01:55:00.140Z,26.57
2022-12-04T01:57:33.795Z,24.05
2022-12-04T02:00:15.883Z,27.23
2022-12-04T02:02:48.865Z,21.65
2022-12-04T02:05:22.738Z,25.75
2022-12-04T02:07:59.045Z,25.90
2022-12-04T02:10:39.756Z,26.55
2022-12-04T02:13:28.790Z,28.17
2022-12-04T02:16:17.758Z,25.90
2022-12-04T02:18:55.129Z,24.52
2022-12-04T02:21:45.030Z,27.48
2022-12-04T02:24:48.285Z,23.38
2022-12-04T02:27:49.151Z,27.50
2022-12-04T02:30:22.041Z,25.77
2022-12-04T02:33:23.631Z,24.30
2022-12-04T02:36:16.251Z,28.27
2022-12-04T02:39:26.903Z,23.95
2022-12-04T02:42:19.053Z,26.12
2022-12-04T02:47:44.750Z,26.17
2022-12-04T02:50:21.319Z,26.00
2022-12-04T02:52:58.010Z,24.67
2022-12-04T02:55:38.786Z,25.23
2022-12-04T02:58:25.029Z,23.12
2022-12-04T03:00:58.646Z,23.98
2022-12-04T03:03:32.448Z,20.92
2022-12-04T03:06:09.072Z,21.45
2022-12-04T03:08:49.007Z,21.37
2022-12-04T03:11:21.784Z,21.27
2022-12-04T03:14:02.723Z,23.00
2022-12-04T03:16:40.071Z,21.45
2022-12-04T03:19:22.753Z,24.95
2022-12-04T03:22:05.871Z,22.85
2022-12-04T03:24:45.017Z,19.80
2022-12-04T03:27:40.745Z,23.02
2022-12-04T03:30:16.944Z,22.48
2022-12-04T03:33:06.512Z,24.40
2022-12-04T03:36:07.593Z,19.57
2022-12-04T03:39:08.686Z,25.20
2022-12-04T03:41:54.863Z,21.65
2022-12-04T03:44:47.858Z,23.18
2022-12-04T03:47:24.257Z,21.45
2022-12-04T03:50:16.683Z,22.00
2022-12-04T03:53:33.325Z,24.20
2022-12-04T03:56:19.446Z,23.98
2022-12-04T03:59:00.089Z,22.45
2022-12-04T04:01:38.001Z,22.25
2022-12-04T04:04:14.691Z,24.00
2022-12-04T04:06:52.179Z,23.75
2022-12-04T04:09:27.530Z,21.62
2022-12-04T04:12:09.291Z,19.92
2022-12-04T04:15:17.693Z,21.25
2022-12-04T04:18:08.311Z,24.65
2022-12-04T04:21:05.827Z,21.15
2022-12-04T04:24:02.226Z,26.50
2022-12-04T04:26:38.845Z,25.30
2022-12-04T04:29:12.009Z,24.98
2022-12-04T04:31:58.048Z,20.62
2022-12-04T04:34:56.104Z,20.48
2022-12-04T04:37:33.305Z,22.25
2022-12-04T04:40:38.232Z,23.18
2022-12-04T04:43:47.151Z,21.90
2022-12-04T04:46:26.559Z,21.57
2022-12-04T04:49:02.416Z,22.32
2022-12-04T04:51:36.633Z,21.12
2022-12-04T04:54:11.373Z,22.13
2022-12-04T04:56:45.319Z,25.75
2022-12-04T04:59:18.256Z,24.45
2022-12-04T05:01:50.818Z,25.55
2022-12-04T05:04:23.992Z,27.87
2022-12-04T05:06:56.619Z,25.62
2022-12-04T05:09:29.146Z,22.62
2022-12-04T05:12:01.588Z,21.45
2022-12-04T05:14:34.161Z,22.22
2022-12-04T05:17:12.364Z,21.25
2022-12-04T05:19:54.519Z,19.37
2022-12-04T05:22:34.023Z,20.40
2022-12-04T05:25:07.019Z,22.25
2022-12-04T05:27:39.691Z,21.97
2022-12-04T05:30:12.926Z,26.25
2022-12-04T05:32:45.457Z,22.53
2022-12-04T05:35:18.659Z,25.82
2022-12-04T05:37:51.298Z,27.22
2022-12-04T05:40:23.803Z,31.90
2022-12-04T05:42:56.232Z,29.02
2022-12-04T05:45:28.676Z,30.20
2022-12-04T05:48:00.990Z,28.95
2022-12-04T05:50:33.945Z,28.17
2022-12-04T05:53:06.422Z,26.23
2022-12-04T05:55:39.155Z,25.15
2022-12-04T05:58:11.715Z,26.02
2022-12-04T06:00:44.121Z,23.35
2022-12-04T06:03:16.727Z,23.20
2022-12-04T06:05:49.305Z,24.30
2022-12-04T06:08:21.782Z,23.73
2022-12-04T06:10:54.429Z,26.30
2022-12-04T06:13:27.080Z,29.72
2022-12-04T06:15:59.524Z,25.00
2022-12-04T06:18:32.460Z,24.57
2022-12-04T06:21:05.037Z,23.22
2022-12-04T06:23:38.308Z,23.52
2022-12-04T06:26:10.929Z,29.63
2022-12-04T06:28:43.515Z,28.50
2022-12-04T06:31:19.259Z,24.60
2022-12-04T06:33:51.811Z,27.87
2022-12-04T06:36:24.657Z,30.40
2022-12-04T06:38:57.961Z,31.57
2022-12-04T06:41:30.735Z,24.05
2022-12-04T06:44:03.209Z,23.80
2022-12-04T06:46:36.564Z,25.57
2022-12-04T06:49:10.677Z,20.57
2022-12-04T06:51:43.728Z,23.73
2022-12-04T06:54:16.787Z,24.77
2022-12-04T06:56:50.673Z,21.48
2022-12-04T06:59:23.094Z,26.52
2022-12-04T07:01:55.696Z,29.18
2022-12-04T07:04:28.189Z,31.12
2022-12-04T07:07:00.616Z,25.35
2022-12-04T07:09:34.720Z,23.90
2022-12-04T07:12:07.902Z,24.18
2022-12-04T07:14:40.763Z,23.00
2022-12-04T07:17:13.350Z,22.17
2022-12-04T07:19:45.942Z,22.17
2022-12-04T07:22:18.676Z,21.30
2022-12-04T07:24:51.742Z,21.75
2022-12-04T07:27:24.360Z,26.63
2022-12-04T07:29:56.971Z,22.82
2022-12-04T07:32:29.728Z,22.15
2022-12-04T07:35:02.868Z,21.42
2022-12-04T07:37:37.493Z,22.93
2022-12-04T07:40:11.124Z,23.62
2022-12-04T07:42:43.629Z,22.13
2022-12-04T07:45:16.003Z,23.38
2022-12-04T07:47:50.517Z,22.65
2022-12-04T07:50:23.166Z,21.57
2022-12-04T07:52:55.727Z,20.85
2022-12-04T07:55:28.458Z,19.70
2022-12-04T07:58:01.033Z,19.52
2022-12-04T08:00:34.550Z,22.83
2022-12-04T08:03:07.026Z,23.95
2022-12-04T08:05:39.884Z,18.62
2022-12-04T08:08:12.704Z,19.40
2022-12-04T08:10:45.162Z,22.52
2022-12-04T08:13:17.475Z,18.60
2022-12-04T08:15:50.008Z,21.60
2022-12-04T08:18:22.426Z,21.90
2022-12-04T08:20:55.133Z,21.30
2022-12-04T08:23:28.832Z,21.48
2022-12-04T08:26:02.597Z,22.50
2022-12-04T08:28:35.194Z,22.65
2022-12-04T08:31:10.891Z,22.50
2022-12-04T08:33:44.608Z,23.83
2022-12-04T08:38:53.564Z,24.83
2022-12-04T08:41:26.529Z,24.15
2022-12-04T08:43:59.926Z,26.10
2022-12-04T08:46:32.596Z,26.17
2022-12-04T08:49:05.710Z,18.80
2022-12-04T08:51:39.331Z,23.50
2022-12-04T08:54:13.809Z,24.90
2022-12-04T08:56:46.257Z,25.05
2022-12-04T08:59:19.297Z,22.93
2022-12-04T09:01:52.714Z,20.37
2022-12-04T09:04:25.495Z,19.82
2022-12-04T09:06:58.040Z,23.85
2022-12-04T09:09:30.938Z,22.62
2022-12-04T09:12:03.426Z,20.85
2022-12-04T09:14:36.088Z,23.85
2022-12-04T09:17:09.444Z,21.10
2022-12-04T09:19:41.935Z,21.85
2022-12-04T09:22:14.712Z,28.70
2022-12-04T09:24:47.784Z,23.22
2022-12-04T09:27:20.216Z,24.67
2022-12-04T09:29:52.734Z,24.23
2022-12-04T09:32:25.310Z,22.82
2022-12-04T09:34:57.981Z,18.80
2022-12-04T09:37:30.661Z,19.25
2022-12-04T09:40:04.008Z,24.12
2022-12-04T09:43:10.053Z,24.65
2022-12-04T09:45:52.261Z,21.07
2022-12-04T09:48:25.638Z,22.70
2022-12-04T09:50:58.210Z,21.43
2022-12-04T09:53:35.510Z,20.92
2022-12-04T09:56:12.917Z,17.17
2022-12-04T09:59:01.709Z,20.27
2022-12-04T10:02:01.674Z,20.68
2022-12-04T10:04:34.577Z,19.98
2022-12-04T10:07:16.959Z,22.58
2022-12-04T10:10:05.645Z,21.65
2022-12-04T10:13:04.487Z,21.70
2022-12-04T10:16:00.404Z,22.62
2022-12-04T10:18:53.453Z,20.72
2022-12-04T10:21:39.512Z,21.00
2022-12-04T10:24:45.425Z,19.30
2022-12-04T10:27:43.549Z,15.78
2022-12-04T10:30:36.999Z,19.17
2022-12-04T10:33:23.409Z,16.87
2022-12-04T10:35:56.348Z,16.67
2022-12-04T10:38:36.984Z,16.05
2022-12-04T10:41:38.071Z,15.35
2022-12-04T10:44:16.897Z,14.20
2022-12-04T10:46:49.380Z,14.23
2022-12-04T10:49:44.603Z,17.60
2022-12-04T10:52:17.848Z,14.85
2022-12-04T10:55:09.581Z,11.85
2022-12-04T10:57:47.485Z,14.55
2022-12-04T11:00:36.188Z,9.88
2022-12-04T11:03:14.158Z,11.63
2022-12-04T11:05:56.676Z,11.50
2022-12-04T11:08:42.504Z,9.20
2022-12-04T11:13:47.700Z,8.53
2022-12-04T11:16:43.563Z,8.48
2022-12-04T11:19:25.661Z,10.15
2022-12-04T11:22:08.115Z,7.20
2022-12-04T11:24:43.413Z,11.97
2022-12-04T11:27:44.287Z,15.75
2022-12-04T11:30:23.825Z,9.68
2022-12-04T11:32:57.126Z,8.98
2022-12-04T11:35:30.554Z,12.07
2022-12-04T11:38:17.901Z,10.35
2022-12-04T11:40:56.220Z,8.85
2022-12-04T11:43:30.682Z,11.53
2022-12-04T11:46:07.737Z,8.65
2022-12-04T11:48:46.194Z,10.40
2022-12-04T11:51:44.620Z,9.28
2022-12-04T11:54:40.009Z,10.63
2022-12-04T11:57:38.103Z,9.18
2022-12-04T12:00:22.934Z,8.83
2022-12-04T12:03:18.754Z,11.38
2022-12-04T12:06:21.675Z,12.15
2022-12-04T12:09:07.998Z,11.08
2022-12-04T12:11:45.503Z,10.15
2022-12-04T12:14:28.269Z,9.10
2022-12-04T12:17:19.776Z,9.03
2022-12-04T12:20:06.824Z,13.53
2022-12-04T12:22:56.429Z,9.45
2022-12-04T12:25:52.109Z,9.15
2022-12-04T12:28:36.372Z,10.25
2022-12-04T12:31:54.325Z,9.23
2022-12-04T12:34:40.596Z,10.88
2022-12-04T12:37:20.573Z,9.48
2022-12-04T12:40:00.572Z,8.70
2022-12-04T12:42:43.646Z,8.60
2022-12-04T12:45:29.994Z,9.20
2022-12-04T12:48:22.917Z,8.45
2022-12-04T12:51:28.416Z,11.57
2022-12-04T12:53:40.712Z,9.30
2022-12-04T12:56:13.448Z,7.85
2022-12-04T12:58:55.390Z,8.70
2022-12-04T13:01:52.828Z,8.75
2022-12-04T13:04:45.500Z,8.38
2022-12-04T13:07:25.484Z,7.83
2022-12-04T13:10:24.239Z,9.28
2022-12-04T13:13:02.664Z,7.15
2022-12-04T13:16:00.250Z,8.13
2022-12-04T13:18:37.367Z,8.85
2022-12-04T13:21:09.679Z,9.25
2022-12-04T13:24:15.871Z,9.28
2022-12-04T13:27:24.826Z,6.75
2022-12-04T13:30:22.319Z,7.22
2022-12-04T13:33:25.572Z,6.22
2022-12-04T13:36:33.143Z,7.08
2022-12-04T13:39:35.725Z,8.63
2022-12-04T13:42:10.301Z,10.68
2022-12-04T13:44:43.342Z,7.37
2022-12-04T13:47:16.046Z,8.00
2022-12-04T13:49:48.365Z,10.32
2022-12-04T13:52:29.603Z,9.45
2022-12-04T13:55:02.689Z,9.30
2022-12-04T13:57:35.848Z,6.53
2022-12-04T14:00:31.570Z,6.40
2022-12-04T14:03:10.442Z,7.37
2022-12-04T14:05:43.683Z,5.83
2022-12-04T14:08:23.696Z,11.95
2022-12-04T14:11:08.499Z,8.73
2022-12-04T14:16:36.524Z,5.75
2022-12-04T14:19:08.966Z,6.42
2022-12-04T14:21:44.772Z,9.23
2022-12-04T14:24:20.475Z,6.12
2022-12-04T14:27:11.099Z,9.53
2022-12-04T14:29:37.732Z,6.75
2022-12-04T14:32:19.027Z,7.17
2022-12-04T14:34:51.998Z,8.45
2022-12-04T14:37:32.144Z,7.62
2022-12-04T14:40:07.551Z,10.65
2022-12-04T14:42:40.818Z,7.53
2022-12-04T14:45:32.695Z,6.08
2022-12-04T14:48:31.396Z,9.90
2022-12-04T14:51:20.768Z,13.85
2022-12-04T14:54:31.358Z,5.65
2022-12-04T14:57:29.208Z,5.45
2022-12-04T15:00:01.781Z,8.80
2022-12-04T15:02:43.179Z,4.70
2022-12-04T15:05:22.700Z,13.62
2022-12-04T15:08:01.938Z,7.20
2022-12-04T15:10:54.127Z,5.12
2022-12-04T15:13:32.120Z,6.60
2022-12-04T15:16:21.746Z,7.20
2022-12-04T15:19:01.521Z,7.30
2022-12-04T15:21:41.090Z,7.15
2022-12-04T15:24:22.981Z,8.60
2022-12-04T15:26:55.451Z,7.75
2022-12-04T15:29:29.867Z,6.62
2022-12-04T15:32:06.379Z,7.47
2022-12-04T15:34:48.471Z,5.33
2022-12-04T15:37:32.312Z,6.42
2022-12-04T15:40:11.491Z,6.58
2022-12-04T15:42:43.879Z,8.35
2022-12-04T15:45:26.429Z,6.62
2022-12-04T15:47:58.956Z,12.78
2022-12-04T15:50:31.721Z,7.05
2022-12-04T15:53:08.762Z,11.35
2022-12-04T15:55:50.671Z,8.78
2022-12-04T15:58:34.178Z,8.50
2022-12-04T16:01:10.548Z,9.60
2022-12-04T16:03:52.758Z,7.22
2022-12-04T16:06:31.110Z,8.00
2022-12-04T16:09:26.883Z,9.23
2022-12-04T16:12:06.784Z,9.03
2022-12-04T16:14:39.649Z,8.20
2022-12-04T16:17:12.470Z,10.00
2022-12-04T16:19:44.815Z,9.05
2022-12-04T16:22:21.178Z,8.20
2022-12-04T16:24:54.368Z,8.83
2022-12-04T16:27:27.768Z,11.75
2022-12-04T16:30:00.926Z,8.18
2022-12-04T16:32:35.014Z,10.28
2022-12-04T16:35:08.914Z,13.30
2022-12-04T16:37:41.986Z,8.28
2022-12-04T16:40:15.459Z,9.88
2022-12-04T16:42:48.113Z,10.80
2022-12-04T16:45:28.063Z,12.35
2022-12-04T16:48:00.670Z,11.43
2022-12-04T16:50:33.472Z,12.07
2022-12-04T16:53:05.985Z,18.95
2022-12-04T16:55:40.225Z,14.65
2022-12-04T17:00:47.661Z,13.15
2022-12-04T17:03:30.031Z,13.75
2022-12-04T17:06:02.788Z,14.25
2022-12-04T17:08:35.881Z,13.13
2022-12-04T17:11:08.367Z,15.85
2022-12-04T17:13:40.913Z,14.15
2022-12-04T17:16:15.198Z,15.58
2022-12-04T17:21:19.794Z,14.03
2022-12-04T17:23:52.350Z,16.52
2022-12-04T17:26:24.999Z,15.90
2022-12-04T17:28:57.436Z,11.95
2022-12-04T17:31:30.152Z,16.37
2022-12-04T17:34:02.943Z,12.37
2022-12-04T17:36:35.608Z,13.05
2022-12-04T17:39:08.407Z,18.07
2022-12-04T17:41:41.232Z,13.60
2022-12-04T17:44:14.297Z,16.12
2022-12-04T17:46:47.227Z,14.75
2022-12-04T17:49:19.647Z,13.35
2022-12-04T17:51:52.138Z,13.53
2022-12-04T17:54:25.763Z,17.98
2022-12-04T17:56:58.412Z,13.98
2022-12-04T17:59:30.937Z,14.15
2022-12-04T18:02:03.476Z,11.03
2022-12-04T18:04:36.139Z,15.10
2022-12-04T18:07:08.884Z,10.95
2022-12-04T18:09:41.800Z,11.25
2022-12-04T18:12:15.037Z,11.22
2022-12-04T18:14:47.434Z,11.43
2022-12-04T18:17:21.013Z,11.30
2022-12-04T18:19:53.812Z,9.63
2022-12-04T18:22:27.047Z,12.47
2022-12-04T18:25:00.805Z,8.15
2022-12-04T18:27:36.639Z,14.03
2022-12-04T18:30:10.209Z,8.90
2022-12-04T18:32:42.720Z,10.35
2022-12-04T18:35:15.256Z,10.28
2022-12-04T18:37:47.812Z,12.68
2022-12-04T18:40:20.411Z,10.90
2022-12-04T18:42:52.954Z,8.50
2022-12-04T18:45:26.095Z,8.08
2022-12-04T18:47:58.665Z,8.77
2022-12-04T18:50:31.588Z,6.72
2022-12-04T18:53:04.063Z,10.88
2022-12-04T18:55:38.364Z,9.58
2022-12-04T18:58:10.640Z,6.78
2022-12-04T19:00:43.098Z,9.10
2022-12-04T19:03:15.890Z,11.45
2022-12-04T19:05:51.896Z,8.93
2022-12-04T19:08:28.467Z,10.25
2022-12-04T19:11:00.780Z,7.65
2022-12-04T19:13:34.430Z,8.63
2022-12-04T19:18:42.407Z,7.08
2022-12-04T19:21:16.612Z,11.20
2022-12-04T19:23:56.950Z,7.70
2022-12-04T19:26:30.680Z,8.90
2022-12-04T19:29:03.862Z,8.13
2022-12-04T19:31:37.993Z,6.80
2022-12-04T19:34:10.780Z,9.28
2022-12-04T19:36:45.214Z,7.35
2022-12-04T19:39:17.906Z,6.85
2022-12-04T19:41:50.213Z,8.73
2022-12-04T19:49:28.677Z,8.58
2022-12-04T19:52:01.379Z,8.98
2022-12-04T19:54:34.043Z,9.03
2022-12-04T19:57:09.692Z,7.65
2022-12-04T19:59:46.229Z,7.75
2022-12-04T20:02:16.736Z,9.18
2022-12-04T20:04:49.227Z,7.95
2022-12-04T20:07:21.691Z,6.53
2022-12-04T20:09:56.154Z,10.03
2022-12-04T20:12:29.565Z,7.75
2022-12-04T20:15:02.333Z,8.23
2022-12-04T20:17:34.975Z,9.15
2022-12-04T20:20:09.258Z,8.35
2022-12-04T20:22:41.925Z,8.15
2022-12-04T20:25:14.398Z,8.85
2022-12-04T20:27:48.150Z,8.60
2022-12-04T20:30:20.894Z,7.78
2022-12-04T20:32:53.270Z,11.43
2022-12-04T20:35:25.956Z,7.55
2022-12-04T20:37:58.501Z,13.38
2022-12-04T20:40:30.947Z,11.08
2022-12-04T20:43:03.331Z,8.15
2022-12-04T20:45:35.896Z,12.35
2022-12-04T20:48:08.758Z,13.88
2022-12-04T20:50:42.947Z,10.78
2022-12-04T20:55:57.064Z,9.45
2022-12-04T20:58:29.842Z,8.50
2022-12-04T21:01:08.538Z,15.75
2022-12-04T21:03:41.142Z,7.65
2022-12-04T21:06:29.615Z,10.15
2022-12-04T21:09:01.760Z,9.73
2022-12-04T21:11:40.917Z,10.43
2022-12-04T21:14:40.335Z,10.32
2022-12-04T21:17:18.737Z,11.55
2022-12-04T21:19:52.776Z,10.30
2022-12-04T21:22:25.114Z,13.40
2022-12-04T21:24:57.719Z,17.70
2022-12-04T21:27:30.945Z,11.63
2022-12-04T21:30:04.343Z,12.03
2022-12-04T21:32:36.995Z,11.48
2022-12-04T21:35:10.096Z,14.10
2022-12-04T21:37:42.892Z,13.30
2022-12-04T21:40:15.876Z,11.03
2022-12-04T21:42:48.206Z,11.83
2022-12-04T21:45:20.839Z,12.80
2022-12-04T21:47:53.546Z,12.13
2022-12-04T21:50:26.544Z,13.23
2022-12-04T21:52:58.952Z,10.72
2022-12-04T21:55:31.376Z,12.40
2022-12-04T21:58:04.993Z,10.53
2022-12-04T22:03:12.561Z,13.88
2022-12-04T22:05:45.004Z,12.07
2022-12-04T22:08:17.475Z,10.80
2022-12-04T22:10:49.946Z,15.40
2022-12-04T22:13:22.627Z,10.15
2022-12-04T22:15:55.178Z,11.73
2022-12-04T22:18:29.139Z,14.40
2022-12-04T22:21:03.875Z,17.75
2022-12-04T22:23:36.540Z,10.10
2022-12-04T22:26:16.023Z,14.53
2022-12-04T22:28:48.469Z,10.72
2022-12-04T22:31:23.063Z,14.03
2022-12-04T22:33:58.139Z,14.70
2022-12-04T22:36:32.891Z,12.65
2022-12-04T22:39:09.727Z,12.30
2022-12-04T22:41:39.847Z,16.27
2022-12-04T22:44:13.422Z,10.28
2022-12-04T22:46:46.041Z,12.03
2022-12-04T22:49:18.615Z,10.75
2022-12-04T22:51:52.250Z,10.98
2022-12-04T22:54:24.683Z,19.50
2022-12-04T22:56:57.245Z,12.98
2022-12-04T22:59:29.947Z,11.75
2022-12-04T23:02:02.563Z,13.65
2022-12-04T23:04:35.304Z,12.88
2022-12-04T23:07:07.934Z,13.90
2022-12-04T23:09:40.796Z,11.38
2022-12-04T23:12:15.188Z,10.85
2022-12-04T23:14:47.649Z,9.95
2022-12-04T23:17:20.627Z,16.73
2022-12-04T23:19:53.651Z,10.58
2022-12-04T23:22:26.365Z,11.05
2022-12-04T23:24:59.005Z,12.63
2022-12-04T23:27:33.417Z,11.12
2022-12-04T23:30:07.063Z,10.60
2022-12-04T23:32:39.807Z,13.58
2022-12-04T23:35:12.443Z,14.07
2022-12-04T23:37:44.802Z,15.15
2022-12-04T23:40:17.388Z,13.28
2022-12-04T23:42:49.899Z,11.78
2022-12-04T23:45:22.325Z,10.65
2022-12-04T23:47:56.004Z,11.78
2022-12-04T23:53:00.524Z,12.45
2022-12-04T23:55:34.765Z,11.73
2022-12-04T23:58:07.843Z,10.78
